sensor_id;sensor_type;location;lat;lon;timestamp;temperature;humidity
26254;DHT22;53339;51.378;0.094;2024-03-08T00:00:11;4.90;88.40
26254;DHT22;53339;51.378;0.094;2024-03-08T00:02:42;4.80;88.50
26254;DHT22;53339;51.378;0.094;2024-03-08T00:05:11;4.80;88.40
26254;DHT22;53339;51.378;0.094;2024-03-08T00:07:39;4.80;88.40
26254;DHT22;53339;51.378;0.094;2024-03-08T00:10:09;4.80;88.40
26254;DHT22;53339;51.378;0.094;2024-03-08T00:12:45;4.80;88.50
26254;DHT22;53339;51.378;0.094;2024-03-08T00:15:17;4.70;88.40
26254;DHT22;53339;51.378;0.094;2024-03-08T00:17:46;4.70;88.30
26254;DHT22;53339;51.378;0.094;2024-03-08T00:20:15;4.70;88.40
26254;DHT22;53339;51.378;0.094;2024-03-08T00:22:45;4.70;88.70
26254;DHT22;53339;51.378;0.094;2024-03-08T00:25:13;4.70;88.60
26254;DHT22;53339;51.378;0.094;2024-03-08T00:27:41;4.70;88.50
26254;DHT22;53339;51.378;0.094;2024-03-08T00:30:09;4.70;88.60
26254;DHT22;53339;51.378;0.094;2024-03-08T00:32:38;4.70;88.80
26254;DHT22;53339;51.378;0.094;2024-03-08T00:35:06;4.80;88.80
26254;DHT22;53339;51.378;0.094;2024-03-08T00:37:36;4.90;88.90
26254;DHT22;53339;51.378;0.094;2024-03-08T00:40:05;4.90;88.90
26254;DHT22;53339;51.378;0.094;2024-03-08T00:42:34;5.00;89.00
26254;DHT22;53339;51.378;0.094;2024-03-08T00:45:02;5.10;89.00
26254;DHT22;53339;51.378;0.094;2024-03-08T00:47:30;5.10;89.00
26254;DHT22;53339;51.378;0.094;2024-03-08T00:49:58;5.20;89.00
26254;DHT22;53339;51.378;0.094;2024-03-08T00:52:26;5.20;89.00
26254;DHT22;53339;51.378;0.094;2024-03-08T00:54:53;5.20;88.80
26254;DHT22;53339;51.378;0.094;2024-03-08T00:57:22;5.20;88.90
26254;DHT22;53339;51.378;0.094;2024-03-08T00:59:49;5.30;88.90
26254;DHT22;53339;51.378;0.094;2024-03-08T01:02:17;5.30;89.00
26254;DHT22;53339;51.378;0.094;2024-03-08T01:04:46;5.30;88.90
26254;DHT22;53339;51.378;0.094;2024-03-08T01:07:15;5.30;88.80
26254;DHT22;53339;51.378;0.094;2024-03-08T01:09:43;5.30;88.90
26254;DHT22;53339;51.378;0.094;2024-03-08T01:12:10;5.30;88.90
26254;DHT22;53339;51.378;0.094;2024-03-08T01:14:38;5.30;88.80
26254;DHT22;53339;51.378;0.094;2024-03-08T01:17:06;5.30;88.70
26254;DHT22;53339;51.378;0.094;2024-03-08T01:19:34;5.20;88.70
26254;DHT22;53339;51.378;0.094;2024-03-08T01:22:01;5.30;88.70
26254;DHT22;53339;51.378;0.094;2024-03-08T01:24:29;5.30;88.70
26254;DHT22;53339;51.378;0.094;2024-03-08T01:26:57;5.20;88.70
26254;DHT22;53339;51.378;0.094;2024-03-08T01:29:24;5.20;88.70
26254;DHT22;53339;51.378;0.094;2024-03-08T01:31:52;5.20;88.80
26254;DHT22;53339;51.378;0.094;2024-03-08T01:34:20;5.20;88.80
26254;DHT22;53339;51.378;0.094;2024-03-08T01:36:48;5.10;88.80
26254;DHT22;53339;51.378;0.094;2024-03-08T01:39:16;5.10;88.70
26254;DHT22;53339;51.378;0.094;2024-03-08T01:41:44;5.10;88.80
26254;DHT22;53339;51.378;0.094;2024-03-08T01:44:12;5.10;88.80
26254;DHT22;53339;51.378;0.094;2024-03-08T01:46:47;5.00;88.70
26254;DHT22;53339;51.378;0.094;2024-03-08T01:49:16;5.00;88.70
26254;DHT22;53339;51.378;0.094;2024-03-08T01:51:46;5.00;88.70
26254;DHT22;53339;51.378;0.094;2024-03-08T01:54:16;5.00;88.80
26254;DHT22;53339;51.378;0.094;2024-03-08T01:56:44;5.00;88.80
26254;DHT22;53339;51.378;0.094;2024-03-08T01:59:12;4.90;88.80
26254;DHT22;53339;51.378;0.094;2024-03-08T02:01:45;5.00;88.80
26254;DHT22;53339;51.378;0.094;2024-03-08T02:04:12;5.00;88.90
26254;DHT22;53339;51.378;0.094;2024-03-08T02:06:40;4.90;88.80
26254;DHT22;53339;51.378;0.094;2024-03-08T02:09:08;4.90;88.80
26254;DHT22;53339;51.378;0.094;2024-03-08T02:11:35;4.90;88.80
26254;DHT22;53339;51.378;0.094;2024-03-08T02:14:03;4.90;88.90
26254;DHT22;53339;51.378;0.094;2024-03-08T02:16:33;4.90;88.80
26254;DHT22;53339;51.378;0.094;2024-03-08T02:19:01;4.80;88.70
26254;DHT22;53339;51.378;0.094;2024-03-08T02:21:28;4.80;88.70
26254;DHT22;53339;51.378;0.094;2024-03-08T02:23:56;4.80;88.80
26254;DHT22;53339;51.378;0.094;2024-03-08T02:26:24;4.70;88.80
26254;DHT22;53339;51.378;0.094;2024-03-08T02:28:52;4.70;88.70
26254;DHT22;53339;51.378;0.094;2024-03-08T02:31:19;4.70;88.80
26254;DHT22;53339;51.378;0.094;2024-03-08T02:33:48;4.70;88.90
26254;DHT22;53339;51.378;0.094;2024-03-08T02:36:16;4.70;88.80
26254;DHT22;53339;51.378;0.094;2024-03-08T02:38:43;4.60;88.70
26254;DHT22;53339;51.378;0.094;2024-03-08T02:41:11;4.60;88.80
26254;DHT22;53339;51.378;0.094;2024-03-08T02:43:39;4.60;88.80
26254;DHT22;53339;51.378;0.094;2024-03-08T02:46:07;4.60;88.80
26254;DHT22;53339;51.378;0.094;2024-03-08T02:48:34;4.60;88.80
26254;DHT22;53339;51.378;0.094;2024-03-08T02:51:02;4.50;88.80
26254;DHT22;53339;51.378;0.094;2024-03-08T02:53:30;4.60;88.90
26254;DHT22;53339;51.378;0.094;2024-03-08T02:55:58;4.50;88.80
26254;DHT22;53339;51.378;0.094;2024-03-08T02:58:26;4.40;88.80
26254;DHT22;53339;51.378;0.094;2024-03-08T03:00:54;4.50;88.90
26254;DHT22;53339;51.378;0.094;2024-03-08T03:03:25;4.50;88.90
26254;DHT22;53339;51.378;0.094;2024-03-08T03:05:54;4.50;88.90
26254;DHT22;53339;51.378;0.094;2024-03-08T03:08:24;4.40;88.90
26254;DHT22;53339;51.378;0.094;2024-03-08T03:10:51;4.40;88.90
26254;DHT22;53339;51.378;0.094;2024-03-08T03:13:19;4.40;89.00
26254;DHT22;53339;51.378;0.094;2024-03-08T03:15:47;4.40;89.00
26254;DHT22;53339;51.378;0.094;2024-03-08T03:18:14;4.40;88.90
26254;DHT22;53339;51.378;0.094;2024-03-08T03:20:43;4.40;88.90
26254;DHT22;53339;51.378;0.094;2024-03-08T03:23:11;4.40;89.00
26254;DHT22;53339;51.378;0.094;2024-03-08T03:25:42;4.40;89.10
26254;DHT22;53339;51.378;0.094;2024-03-08T03:28:10;4.40;88.90
26254;DHT22;53339;51.378;0.094;2024-03-08T03:30:42;4.40;88.90
26254;DHT22;53339;51.378;0.094;2024-03-08T03:33:09;4.40;89.00
26254;DHT22;53339;51.378;0.094;2024-03-08T03:35:37;4.40;89.00
26254;DHT22;53339;51.378;0.094;2024-03-08T03:38:05;4.30;88.90
26254;DHT22;53339;51.378;0.094;2024-03-08T03:40:37;4.30;88.90
26254;DHT22;53339;51.378;0.094;2024-03-08T03:43:05;4.40;89.00
26254;DHT22;53339;51.378;0.094;2024-03-08T03:45:33;4.40;89.10
26254;DHT22;53339;51.378;0.094;2024-03-08T03:48:06;4.30;89.00
26254;DHT22;53339;51.378;0.094;2024-03-08T03:50:36;4.30;89.00
26254;DHT22;53339;51.378;0.094;2024-03-08T03:53:04;4.30;89.00
26254;DHT22;53339;51.378;0.094;2024-03-08T03:55:38;4.30;89.00
26254;DHT22;53339;51.378;0.094;2024-03-08T03:58:07;4.30;89.00
26254;DHT22;53339;51.378;0.094;2024-03-08T04:00:34;4.20;88.90
26254;DHT22;53339;51.378;0.094;2024-03-08T04:03:02;4.20;88.90
26254;DHT22;53339;51.378;0.094;2024-03-08T04:05:30;4.30;89.00
26254;DHT22;53339;51.378;0.094;2024-03-08T04:07:59;4.20;89.00
26254;DHT22;53339;51.378;0.094;2024-03-08T04:10:26;4.20;88.90
26254;DHT22;53339;51.378;0.094;2024-03-08T04:12:54;4.20;89.00
26254;DHT22;53339;51.378;0.094;2024-03-08T04:15:21;4.20;89.10
26254;DHT22;53339;51.378;0.094;2024-03-08T04:17:50;4.20;89.00
26254;DHT22;53339;51.378;0.094;2024-03-08T04:20:18;4.10;89.00
26254;DHT22;53339;51.378;0.094;2024-03-08T04:22:45;4.10;89.10
26254;DHT22;53339;51.378;0.094;2024-03-08T04:25:16;4.10;89.10
26254;DHT22;53339;51.378;0.094;2024-03-08T04:27:44;4.20;89.10
26254;DHT22;53339;51.378;0.094;2024-03-08T04:30:12;4.10;89.00
26254;DHT22;53339;51.378;0.094;2024-03-08T04:32:40;4.00;89.00
26254;DHT22;53339;51.378;0.094;2024-03-08T04:35:09;4.10;89.10
26254;DHT22;53339;51.378;0.094;2024-03-08T04:37:36;4.10;89.20
26254;DHT22;53339;51.378;0.094;2024-03-08T04:40:04;4.00;89.00
26254;DHT22;53339;51.378;0.094;2024-03-08T04:42:33;4.00;89.10
26254;DHT22;53339;51.378;0.094;2024-03-08T04:45:01;4.00;89.20
26254;DHT22;53339;51.378;0.094;2024-03-08T04:47:30;4.10;89.20
26254;DHT22;53339;51.378;0.094;2024-03-08T04:49:59;4.00;89.00
26254;DHT22;53339;51.378;0.094;2024-03-08T04:52:27;4.00;89.00
26254;DHT22;53339;51.378;0.094;2024-03-08T04:54:55;4.00;89.10
26254;DHT22;53339;51.378;0.094;2024-03-08T04:57:24;4.00;89.20
26254;DHT22;53339;51.378;0.094;2024-03-08T04:59:53;3.90;89.00
26254;DHT22;53339;51.378;0.094;2024-03-08T05:02:20;3.90;89.00
26254;DHT22;53339;51.378;0.094;2024-03-08T05:04:50;3.90;89.00
26254;DHT22;53339;51.378;0.094;2024-03-08T05:07:18;4.00;89.10
26254;DHT22;53339;51.378;0.094;2024-03-08T05:09:46;3.90;89.00
26254;DHT22;53339;51.378;0.094;2024-03-08T05:12:19;3.90;89.00
26254;DHT22;53339;51.378;0.094;2024-03-08T05:14:46;3.90;89.10
26254;DHT22;53339;51.378;0.094;2024-03-08T05:17:17;4.00;89.20
26254;DHT22;53339;51.378;0.094;2024-03-08T05:19:45;4.00;89.10
26254;DHT22;53339;51.378;0.094;2024-03-08T05:22:12;3.90;89.00
26254;DHT22;53339;51.378;0.094;2024-03-08T05:24:40;3.90;89.10
26254;DHT22;53339;51.378;0.094;2024-03-08T05:27:08;4.00;89.20
26254;DHT22;53339;51.378;0.094;2024-03-08T05:29:36;4.00;89.10
26254;DHT22;53339;51.378;0.094;2024-03-08T05:32:03;3.90;89.00
26254;DHT22;53339;51.378;0.094;2024-03-08T05:34:31;3.90;89.10
26254;DHT22;53339;51.378;0.094;2024-03-08T05:37:00;3.90;89.20
26254;DHT22;53339;51.378;0.094;2024-03-08T05:39:28;4.00;89.20
26254;DHT22;53339;51.378;0.094;2024-03-08T05:41:56;3.90;89.00
26254;DHT22;53339;51.378;0.094;2024-03-08T05:44:24;3.90;89.10
26254;DHT22;53339;51.378;0.094;2024-03-08T05:46:51;4.00;89.30
26254;DHT22;53339;51.378;0.094;2024-03-08T05:49:19;3.90;89.30
26254;DHT22;53339;51.378;0.094;2024-03-08T05:51:46;3.90;89.10
26254;DHT22;53339;51.378;0.094;2024-03-08T05:54:15;3.80;89.10
26254;DHT22;53339;51.378;0.094;2024-03-08T05:56:44;3.90;89.20
26254;DHT22;53339;51.378;0.094;2024-03-08T05:59:12;3.90;89.30
26254;DHT22;53339;51.378;0.094;2024-03-08T06:01:40;3.90;89.10
26254;DHT22;53339;51.378;0.094;2024-03-08T06:04:09;3.80;89.20
26254;DHT22;53339;51.378;0.094;2024-03-08T06:06:38;3.90;89.30
26254;DHT22;53339;51.378;0.094;2024-03-08T06:09:09;3.90;89.40
26254;DHT22;53339;51.378;0.094;2024-03-08T06:11:39;3.90;89.20
26254;DHT22;53339;51.378;0.094;2024-03-08T06:14:07;3.90;89.20
26254;DHT22;53339;51.378;0.094;2024-03-08T06:16:35;3.90;89.30
26254;DHT22;53339;51.378;0.094;2024-03-08T06:19:03;4.00;89.50
26254;DHT22;53339;51.378;0.094;2024-03-08T06:21:33;3.90;89.30
26254;DHT22;53339;51.378;0.094;2024-03-08T06:24:00;3.90;89.30
26254;DHT22;53339;51.378;0.094;2024-03-08T06:26:28;4.00;89.40
26254;DHT22;53339;51.378;0.094;2024-03-08T06:28:57;4.10;89.60
26254;DHT22;53339;51.378;0.094;2024-03-08T06:31:25;4.10;89.50
26254;DHT22;53339;51.378;0.094;2024-03-08T06:33:53;4.10;89.40
26254;DHT22;53339;51.378;0.094;2024-03-08T06:36:22;4.10;89.50
26254;DHT22;53339;51.378;0.094;2024-03-08T06:38:50;4.20;89.60
26254;DHT22;53339;51.378;0.094;2024-03-08T06:41:18;4.20;89.60
26254;DHT22;53339;51.378;0.094;2024-03-08T06:43:47;4.20;89.50
26254;DHT22;53339;51.378;0.094;2024-03-08T06:46:15;4.20;89.60
26254;DHT22;53339;51.378;0.094;2024-03-08T06:48:43;4.30;89.70
26254;DHT22;53339;51.378;0.094;2024-03-08T06:51:14;4.30;89.60
26254;DHT22;53339;51.378;0.094;2024-03-08T06:53:42;4.20;89.30
26254;DHT22;53339;51.378;0.094;2024-03-08T06:56:09;4.20;89.40
26254;DHT22;53339;51.378;0.094;2024-03-08T06:58:37;4.30;89.60
26254;DHT22;53339;51.378;0.094;2024-03-08T07:01:05;4.30;89.70
26254;DHT22;53339;51.378;0.094;2024-03-08T07:03:35;4.20;89.50
26254;DHT22;53339;51.378;0.094;2024-03-08T07:06:03;4.30;89.60
26254;DHT22;53339;51.378;0.094;2024-03-08T07:08:34;4.40;89.80
26254;DHT22;53339;51.378;0.094;2024-03-08T07:11:02;4.50;89.90
26254;DHT22;53339;51.378;0.094;2024-03-08T07:13:31;4.40;89.70
26254;DHT22;53339;51.378;0.094;2024-03-08T07:15:59;4.40;89.70
26254;DHT22;53339;51.378;0.094;2024-03-08T07:18:28;4.50;89.80
26254;DHT22;53339;51.378;0.094;2024-03-08T07:20:57;4.60;89.80
26254;DHT22;53339;51.378;0.094;2024-03-08T07:23:25;4.50;89.70
26254;DHT22;53339;51.378;0.094;2024-03-08T07:26:15;4.50;89.70
26254;DHT22;53339;51.378;0.094;2024-03-08T07:28:44;4.60;89.90
26254;DHT22;53339;51.378;0.094;2024-03-08T07:31:11;4.70;89.90
26254;DHT22;53339;51.378;0.094;2024-03-08T07:33:54;4.70;89.80
26254;DHT22;53339;51.378;0.094;2024-03-08T07:36:21;4.70;89.80
26254;DHT22;53339;51.378;0.094;2024-03-08T07:38:52;4.70;89.90
26254;DHT22;53339;51.378;0.094;2024-03-08T07:41:20;4.90;89.90
26254;DHT22;53339;51.378;0.094;2024-03-08T07:43:47;4.80;89.80
26254;DHT22;53339;51.378;0.094;2024-03-08T07:46:16;4.80;89.80
26254;DHT22;53339;51.378;0.094;2024-03-08T07:48:46;5.00;90.00
26254;DHT22;53339;51.378;0.094;2024-03-08T07:51:16;5.00;90.00
26254;DHT22;53339;51.378;0.094;2024-03-08T07:53:45;5.00;89.80
26254;DHT22;53339;51.378;0.094;2024-03-08T07:56:13;5.00;89.80
26254;DHT22;53339;51.378;0.094;2024-03-08T07:58:41;5.10;89.90
26254;DHT22;53339;51.378;0.094;2024-03-08T08:01:19;5.20;90.00
26254;DHT22;53339;51.378;0.094;2024-03-08T08:03:46;5.20;89.90
26254;DHT22;53339;51.378;0.094;2024-03-08T08:06:16;5.20;89.90
26254;DHT22;53339;51.378;0.094;2024-03-08T08:08:44;5.30;90.00
26254;DHT22;53339;51.378;0.094;2024-03-08T08:11:11;5.50;90.10
26254;DHT22;53339;51.378;0.094;2024-03-08T08:13:39;5.50;89.90
26254;DHT22;53339;51.378;0.094;2024-03-08T08:16:07;5.50;89.80
26254;DHT22;53339;51.378;0.094;2024-03-08T08:18:35;5.50;89.90
26254;DHT22;53339;51.378;0.094;2024-03-08T08:21:03;5.60;90.00
26254;DHT22;53339;51.378;0.094;2024-03-08T08:23:33;5.60;89.80
26254;DHT22;53339;51.378;0.094;2024-03-08T08:26:02;5.70;89.80
26254;DHT22;53339;51.378;0.094;2024-03-08T08:28:32;5.70;89.80
26254;DHT22;53339;51.378;0.094;2024-03-08T08:30:59;5.80;89.90
26254;DHT22;53339;51.378;0.094;2024-03-08T08:33:27;5.90;89.70
26254;DHT22;53339;51.378;0.094;2024-03-08T08:35:55;5.90;89.60
26254;DHT22;53339;51.378;0.094;2024-03-08T08:38:23;5.90;89.70
26254;DHT22;53339;51.378;0.094;2024-03-08T08:40:50;6.00;89.80
26254;DHT22;53339;51.378;0.094;2024-03-08T08:43:18;6.10;89.70
26254;DHT22;53339;51.378;0.094;2024-03-08T08:45:47;6.10;89.60
26254;DHT22;53339;51.378;0.094;2024-03-08T08:48:17;6.10;89.70
26254;DHT22;53339;51.378;0.094;2024-03-08T08:50:45;6.30;89.80
26254;DHT22;53339;51.378;0.094;2024-03-08T08:53:14;6.30;89.60
26254;DHT22;53339;51.378;0.094;2024-03-08T08:55:42;6.30;89.40
26254;DHT22;53339;51.378;0.094;2024-03-08T08:58:09;6.40;89.50
26254;DHT22;53339;51.378;0.094;2024-03-08T09:00:38;6.50;89.60
26254;DHT22;53339;51.378;0.094;2024-03-08T09:03:06;6.60;89.50
26254;DHT22;53339;51.378;0.094;2024-03-08T09:05:34;6.60;89.20
26254;DHT22;53339;51.378;0.094;2024-03-08T09:08:04;6.60;89.30
26254;DHT22;53339;51.378;0.094;2024-03-08T09:10:32;6.60;89.40
26254;DHT22;53339;51.378;0.094;2024-03-08T09:13:01;6.80;89.30
26254;DHT22;53339;51.378;0.094;2024-03-08T09:15:31;6.70;89.00
26254;DHT22;53339;51.378;0.094;2024-03-08T09:17:59;6.80;89.10
26254;DHT22;53339;51.378;0.094;2024-03-08T09:20:27;6.80;89.10
26254;DHT22;53339;51.378;0.094;2024-03-08T09:22:55;6.90;89.10
26254;DHT22;53339;51.378;0.094;2024-03-08T09:25:22;6.90;88.80
26254;DHT22;53339;51.378;0.094;2024-03-08T09:27:50;6.90;88.80
26254;DHT22;53339;51.378;0.094;2024-03-08T09:30:22;7.00;88.90
26254;DHT22;53339;51.378;0.094;2024-03-08T09:32:49;7.10;88.90
26254;DHT22;53339;51.378;0.094;2024-03-08T09:35:19;7.10;88.20
26254;DHT22;53339;51.378;0.094;2024-03-08T09:37:47;7.10;88.40
26254;DHT22;53339;51.378;0.094;2024-03-08T09:40:18;7.10;88.50
26254;DHT22;53339;51.378;0.094;2024-03-08T09:42:48;7.20;88.50
26254;DHT22;53339;51.378;0.094;2024-03-08T09:45:17;7.20;88.20
26254;DHT22;53339;51.378;0.094;2024-03-08T09:47:45;7.30;88.10
26254;DHT22;53339;51.378;0.094;2024-03-08T09:50:12;7.40;88.40
26254;DHT22;53339;51.378;0.094;2024-03-08T09:52:40;7.50;88.30
26254;DHT22;53339;51.378;0.094;2024-03-08T09:55:10;7.60;88.00
26254;DHT22;53339;51.378;0.094;2024-03-08T09:57:40;7.50;87.60
26254;DHT22;53339;51.378;0.094;2024-03-08T10:00:07;7.50;87.40
26254;DHT22;53339;51.378;0.094;2024-03-08T10:02:46;7.40;87.30
26254;DHT22;53339;51.378;0.094;2024-03-08T10:05:14;7.30;87.00
26254;DHT22;53339;51.378;0.094;2024-03-08T10:07:41;7.20;87.20
26254;DHT22;53339;51.378;0.094;2024-03-08T10:10:09;7.20;87.50
26254;DHT22;53339;51.378;0.094;2024-03-08T10:12:39;7.20;87.60
26254;DHT22;53339;51.378;0.094;2024-03-08T10:15:08;7.30;87.50
26254;DHT22;53339;51.378;0.094;2024-03-08T10:17:36;7.30;87.30
26254;DHT22;53339;51.378;0.094;2024-03-08T10:20:04;7.30;87.50
26254;DHT22;53339;51.378;0.094;2024-03-08T10:22:42;7.30;87.60
26254;DHT22;53339;51.378;0.094;2024-03-08T10:25:17;7.40;87.40
26254;DHT22;53339;51.378;0.094;2024-03-08T10:27:45;7.50;87.30
26254;DHT22;53339;51.378;0.094;2024-03-08T10:30:15;7.70;87.20
26254;DHT22;53339;51.378;0.094;2024-03-08T10:32:43;7.80;87.10
26254;DHT22;53339;51.378;0.094;2024-03-08T10:35:11;7.90;86.50
26254;DHT22;53339;51.378;0.094;2024-03-08T10:37:46;7.90;85.90
26254;DHT22;53339;51.378;0.094;2024-03-08T10:40:18;8.00;86.10
26254;DHT22;53339;51.378;0.094;2024-03-08T10:42:55;8.10;86.30
26254;DHT22;53339;51.378;0.094;2024-03-08T10:50:51;8.20;85.30
26254;DHT22;53339;51.378;0.094;2024-03-08T10:53:20;8.30;85.10
26254;DHT22;53339;51.378;0.094;2024-03-08T10:55:49;8.40;84.00
26254;DHT22;53339;51.378;0.094;2024-03-08T10:58:22;8.30;83.50
26254;DHT22;53339;51.378;0.094;2024-03-08T11:00:50;8.30;83.90
26254;DHT22;53339;51.378;0.094;2024-03-08T11:06:13;8.40;83.50
26254;DHT22;53339;51.378;0.094;2024-03-08T11:08:42;8.40;82.90
26254;DHT22;53339;51.378;0.094;2024-03-08T11:11:31;8.40;82.70
26254;DHT22;53339;51.378;0.094;2024-03-08T11:14:01;8.50;82.90
26254;DHT22;53339;51.378;0.094;2024-03-08T11:21:38;8.60;83.00
26254;DHT22;53339;51.378;0.094;2024-03-08T11:24:13;8.70;82.80
26254;DHT22;53339;51.378;0.094;2024-03-08T11:26:41;8.80;81.80
26254;DHT22;53339;51.378;0.094;2024-03-08T11:32:09;8.90;81.40
26254;DHT22;53339;51.378;0.094;2024-03-08T11:34:46;8.90;80.60
26254;DHT22;53339;51.378;0.094;2024-03-08T11:37:15;9.00;80.30
26254;DHT22;53339;51.378;0.094;2024-03-08T11:39:47;9.00;80.60
26254;DHT22;53339;51.378;0.094;2024-03-08T11:42:19;9.00;81.40
26254;DHT22;53339;51.378;0.094;2024-03-08T11:44:50;9.20;81.10
26254;DHT22;53339;51.378;0.094;2024-03-08T11:47:19;9.20;80.40
26254;DHT22;53339;51.378;0.094;2024-03-08T11:49:46;9.20;80.50
26254;DHT22;53339;51.378;0.094;2024-03-08T11:52:18;9.20;80.30
26254;DHT22;53339;51.378;0.094;2024-03-08T11:54:53;9.20;80.30
26254;DHT22;53339;51.378;0.094;2024-03-08T11:57:25;9.20;79.70
26254;DHT22;53339;51.378;0.094;2024-03-08T11:59:54;9.20;79.20
26254;DHT22;53339;51.378;0.094;2024-03-08T12:02:25;9.20;79.60
26254;DHT22;53339;51.378;0.094;2024-03-08T12:05:01;9.20;79.60
26254;DHT22;53339;51.378;0.094;2024-03-08T12:07:30;9.20;79.30
26254;DHT22;53339;51.378;0.094;2024-03-08T12:10:21;9.20;79.90
26254;DHT22;53339;51.378;0.094;2024-03-08T12:12:54;9.40;80.50
26254;DHT22;53339;51.378;0.094;2024-03-08T12:15:23;9.60;81.00
26254;DHT22;53339;51.378;0.094;2024-03-08T12:17:53;9.70;79.50
26254;DHT22;53339;51.378;0.094;2024-03-08T12:20:27;9.70;79.80
26254;DHT22;53339;51.378;0.094;2024-03-08T12:22:59;9.80;80.10
26254;DHT22;53339;51.378;0.094;2024-03-08T12:25:33;9.80;79.90
26254;DHT22;53339;51.378;0.094;2024-03-08T12:28:08;9.80;78.90
26254;DHT22;53339;51.378;0.094;2024-03-08T12:30:51;9.70;78.60
26254;DHT22;53339;51.378;0.094;2024-03-08T12:33:21;9.70;78.60
26254;DHT22;53339;51.378;0.094;2024-03-08T12:35:54;9.60;78.50
26254;DHT22;53339;51.378;0.094;2024-03-08T12:38:22;9.60;78.40
26254;DHT22;53339;51.378;0.094;2024-03-08T12:41:00;9.60;78.80
26254;DHT22;53339;51.378;0.094;2024-03-08T12:43:29;9.60;79.30
26254;DHT22;53339;51.378;0.094;2024-03-08T12:45:58;9.60;78.90
26254;DHT22;53339;51.378;0.094;2024-03-08T12:48:26;9.60;78.10
26254;DHT22;53339;51.378;0.094;2024-03-08T12:50:54;9.50;78.50
26254;DHT22;53339;51.378;0.094;2024-03-08T12:53:23;9.50;78.90
26254;DHT22;53339;51.378;0.094;2024-03-08T12:55:52;9.60;78.90
26254;DHT22;53339;51.378;0.094;2024-03-08T12:58:22;9.60;78.00
26254;DHT22;53339;51.378;0.094;2024-03-08T13:00:50;9.60;77.90
26254;DHT22;53339;51.378;0.094;2024-03-08T13:03:20;9.60;78.70
26254;DHT22;53339;51.378;0.094;2024-03-08T13:05:48;9.60;78.80
26254;DHT22;53339;51.378;0.094;2024-03-08T13:08:16;9.60;78.10
26254;DHT22;53339;51.378;0.094;2024-03-08T13:10:45;9.60;77.70
26254;DHT22;53339;51.378;0.094;2024-03-08T13:13:13;9.50;78.30
26254;DHT22;53339;51.378;0.094;2024-03-08T13:15:44;9.60;78.40
26254;DHT22;53339;51.378;0.094;2024-03-08T13:18:12;9.70;77.50
26254;DHT22;53339;51.378;0.094;2024-03-08T13:20:41;9.60;77.60
26254;DHT22;53339;51.378;0.094;2024-03-08T13:23:14;9.60;78.10
26254;DHT22;53339;51.378;0.094;2024-03-08T13:25:42;9.60;77.70
26254;DHT22;53339;51.378;0.094;2024-03-08T13:28:09;9.70;78.00
26254;DHT22;53339;51.378;0.094;2024-03-08T13:30:41;9.70;77.60
26254;DHT22;53339;51.378;0.094;2024-03-08T13:33:09;9.90;77.40
26254;DHT22;53339;51.378;0.094;2024-03-08T13:35:37;9.90;76.90
26254;DHT22;53339;51.378;0.094;2024-03-08T13:38:05;9.80;76.60
26254;DHT22;53339;51.378;0.094;2024-03-08T13:40:36;9.70;76.70
26254;DHT22;53339;51.378;0.094;2024-03-08T13:43:04;9.60;78.00
26254;DHT22;53339;51.378;0.094;2024-03-08T13:45:31;9.60;77.40
26254;DHT22;53339;51.378;0.094;2024-03-08T13:48:03;9.60;77.70
26254;DHT22;53339;51.378;0.094;2024-03-08T13:50:32;9.50;76.60
26254;DHT22;53339;51.378;0.094;2024-03-08T13:52:59;9.40;77.40
26254;DHT22;53339;51.378;0.094;2024-03-08T13:55:27;9.50;77.90
26254;DHT22;53339;51.378;0.094;2024-03-08T13:57:55;9.60;78.20
26254;DHT22;53339;51.378;0.094;2024-03-08T14:00:24;9.70;76.80
26254;DHT22;53339;51.378;0.094;2024-03-08T14:02:55;9.90;77.20
26254;DHT22;53339;51.378;0.094;2024-03-08T14:05:22;10.00;77.20
26254;DHT22;53339;51.378;0.094;2024-03-08T14:07:50;10.00;77.20
26254;DHT22;53339;51.378;0.094;2024-03-08T14:10:18;10.00;76.80
26254;DHT22;53339;51.378;0.094;2024-03-08T14:12:50;10.00;76.70
26254;DHT22;53339;51.378;0.094;2024-03-08T14:15:18;10.00;76.60
26254;DHT22;53339;51.378;0.094;2024-03-08T14:17:53;9.90;77.40
26254;DHT22;53339;51.378;0.094;2024-03-08T14:20:21;9.90;76.30
26254;DHT22;53339;51.378;0.094;2024-03-08T14:22:55;9.90;76.50
26254;DHT22;53339;51.378;0.094;2024-03-08T14:25:24;9.90;76.80
26254;DHT22;53339;51.378;0.094;2024-03-08T14:27:53;9.90;76.20
26254;DHT22;53339;51.378;0.094;2024-03-08T14:30:22;9.70;75.70
26254;DHT22;53339;51.378;0.094;2024-03-08T14:33:02;9.70;76.30
26254;DHT22;53339;51.378;0.094;2024-03-08T14:35:31;9.90;76.90
26254;DHT22;53339;51.378;0.094;2024-03-08T14:37:58;10.10;76.70
26254;DHT22;53339;51.378;0.094;2024-03-08T14:40:26;10.10;75.60
26254;DHT22;53339;51.378;0.094;2024-03-08T14:42:54;10.00;75.30
26254;DHT22;53339;51.378;0.094;2024-03-08T14:45:21;9.90;76.20
26254;DHT22;53339;51.378;0.094;2024-03-08T14:47:51;10.10;77.00
26254;DHT22;53339;51.378;0.094;2024-03-08T14:50:23;10.30;76.60
26254;DHT22;53339;51.378;0.094;2024-03-08T14:52:52;10.20;75.30
26254;DHT22;53339;51.378;0.094;2024-03-08T14:55:20;10.00;75.30
26254;DHT22;53339;51.378;0.094;2024-03-08T14:57:52;9.90;76.30
26254;DHT22;53339;51.378;0.094;2024-03-08T15:00:21;9.70;76.60
26254;DHT22;53339;51.378;0.094;2024-03-08T15:03:01;9.80;77.20
26254;DHT22;53339;51.378;0.094;2024-03-08T15:05:34;10.30;77.10
26254;DHT22;53339;51.378;0.094;2024-03-08T15:08:06;10.80;77.00
26254;DHT22;53339;51.378;0.094;2024-03-08T15:10:37;11.40;76.40
26254;DHT22;53339;51.378;0.094;2024-03-08T15:13:07;11.70;74.10
26254;DHT22;53339;51.378;0.094;2024-03-08T15:15:42;11.70;73.90
26254;DHT22;53339;51.378;0.094;2024-03-08T15:18:13;11.70;74.70
26254;DHT22;53339;51.378;0.094;2024-03-08T15:20:41;11.70;75.10
26254;DHT22;53339;51.378;0.094;2024-03-08T15:23:09;11.50;73.90
26254;DHT22;53339;51.378;0.094;2024-03-08T15:25:37;11.20;73.00
26254;DHT22;53339;51.378;0.094;2024-03-08T15:28:06;11.00;73.60
26254;DHT22;53339;51.378;0.094;2024-03-08T15:30:41;10.90;75.70
26254;DHT22;53339;51.378;0.094;2024-03-08T15:33:13;10.60;73.90
26254;DHT22;53339;51.378;0.094;2024-03-08T15:35:50;10.20;73.20
26254;DHT22;53339;51.378;0.094;2024-03-08T15:38:25;9.70;74.20
26254;DHT22;53339;51.378;0.094;2024-03-08T15:40:55;9.60;76.40
26254;DHT22;53339;51.378;0.094;2024-03-08T15:43:23;9.70;76.50
26254;DHT22;53339;51.378;0.094;2024-03-08T15:45:52;9.70;75.40
26254;DHT22;53339;51.378;0.094;2024-03-08T15:48:22;9.40;75.20
26254;DHT22;53339;51.378;0.094;2024-03-08T15:50:49;9.20;75.90
26254;DHT22;53339;51.378;0.094;2024-03-08T15:53:18;9.10;76.20
26254;DHT22;53339;51.378;0.094;2024-03-08T15:55:46;8.90;75.60
26254;DHT22;53339;51.378;0.094;2024-03-08T15:58:14;8.60;75.70
26254;DHT22;53339;51.378;0.094;2024-03-08T16:00:42;8.40;77.00
26254;DHT22;53339;51.378;0.094;2024-03-08T16:03:14;8.40;77.50
26254;DHT22;53339;51.378;0.094;2024-03-08T16:05:42;8.30;77.30
26254;DHT22;53339;51.378;0.094;2024-03-08T16:08:14;8.10;77.10
26254;DHT22;53339;51.378;0.094;2024-03-08T16:10:51;8.00;78.30
26254;DHT22;53339;51.378;0.094;2024-03-08T16:13:23;8.10;78.60